Time;durP1;ratioP1;P1;durP2;ratioP2;P2;SDS_P1;SDS_P2;PMS_P1;PMS_P2;Temp;Humidity;BMP_temperature;BMP_pressure;BME280_temperature;BME280_humidity;BME280_pressure;Samples;Min_cycle;Max_cycle;Signal;HPM_P1;HPM_P2
2023/06/07 00:00:32;;;;;;;20.40;8.50;;;25.60;65.90;;;;;;7386539;19;20007;-78
2023/06/07 00:03:01;;;;;;;19.88;7.95;;;25.60;66.00;;;;;;7385296;19;19999;-78
2023/06/07 00:05:31;;;;;;;24.60;9.23;;;25.60;66.00;;;;;;7386603;19;20010;-78
2023/06/07 00:08:00;;;;;;;23.75;8.73;;;25.50;66.20;;;;;;7403995;19;20367;-78
2023/06/07 00:10:30;;;;;;;29.58;8.38;;;25.50;66.30;;;;;;7386382;19;20020;-78
2023/06/07 00:13:02;;;;;;;18.95;8.45;;;25.40;66.50;;;;;;7383261;19;20094;-78
2023/06/07 00:15:31;;;;;;;28.40;8.43;;;25.40;66.80;;;;;;7383925;19;20014;-78
2023/06/07 00:18:00;;;;;;;29.40;8.60;;;25.30;67.00;;;;;;7381789;19;20017;-78
2023/06/07 00:20:49;;;;;;;27.33;9.05;;;25.30;67.10;;;;;;7382481;19;20021;-77
2023/06/07 00:23:18;;;;;;;24.67;9.38;;;25.30;67.00;;;;;;7388234;19;20035;-78
2023/06/07 00:25:47;;;;;;;25.90;9.35;;;25.20;67.20;;;;;;7407319;19;20011;-78
2023/06/07 00:28:18;;;;;;;28.88;9.45;;;25.10;67.40;;;;;;7386175;19;20024;-78
2023/06/07 00:31:03;;;;;;;27.38;9.05;;;25.10;67.60;;;;;;7384573;19;20305;-79
2023/06/07 00:33:31;;;;;;;26.92;10.48;;;25.10;67.50;;;;;;7385269;19;20268;-78
2023/06/07 00:36:00;;;;;;;23.02;9.02;;;25.00;67.50;;;;;;7390705;19;20007;-78
2023/06/07 00:38:29;;;;;;;26.05;9.05;;;25.00;67.70;;;;;;7388426;19;20014;-78
2023/06/07 00:40:58;;;;;;;31.98;10.40;;;24.90;68.00;;;;;;7407119;19;20009;-78
2023/06/07 00:43:29;;;;;;;17.67;8.52;;;24.80;68.10;;;;;;7387658;19;20031;-78
2023/06/07 00:45:58;;;;;;;;;;;24.80;68.20;;;;;;7385153;19;20022;-78
2023/06/07 00:48:27;;;;;;;19.13;8.57;;;24.90;68.20;;;;;;7383479;19;19907;-78
2023/06/07 00:50:56;;;;;;;26.42;9.18;;;24.90;67.80;;;;;;7385242;19;20252;-78
2023/06/07 00:53:26;;;;;;;24.13;9.18;;;24.90;67.70;;;;;;7381877;19;20007;-78
2023/06/07 00:55:55;;;;;;;26.90;9.68;;;24.80;67.80;;;;;;7405215;19;20018;-78
2023/06/07 00:58:25;;;;;;;27.23;10.00;;;24.70;68.00;;;;;;7380027;19;20023;-78
2023/06/07 01:00:59;;;;;;;20.88;9.00;;;24.70;67.90;;;;;;7380034;19;20014;-78
2023/06/07 01:03:30;;;;;;;21.17;9.30;;;24.70;67.90;;;;;;7381228;19;19998;-78
2023/06/07 01:06:02;;;;;;;34.53;9.80;;;24.70;67.80;;;;;;7383321;19;20046;-77
2023/06/07 01:08:31;;;;;;;26.70;10.18;;;24.70;67.80;;;;;;7383152;19;20007;-78
2023/06/07 01:11:05;;;;;;;22.67;9.80;;;24.60;67.80;;;;;;7403848;19;20007;-78
2023/06/07 01:13:34;;;;;;;25.00;10.30;;;24.60;67.90;;;;;;7382050;19;20006;-78
2023/06/07 01:16:06;;;;;;;41.10;9.65;;;24.50;67.70;;;;;;7381332;19;20373;-78
2023/06/07 01:18:35;;;;;;;21.73;9.27;;;24.60;67.90;;;;;;7381068;19;20010;-78
2023/06/07 01:21:07;;;;;;;27.08;10.40;;;24.60;67.90;;;;;;7381450;19;20009;-78
2023/06/07 01:23:40;;;;;;;27.05;10.32;;;24.60;67.70;;;;;;7382325;19;20018;-77
2023/06/07 01:26:09;;;;;;;24.48;9.68;;;24.50;68.50;;;;;;7379820;19;20264;-78
2023/06/07 01:28:41;;;;;;;27.58;10.27;;;24.60;67.70;;;;;;7401465;19;20003;-78
2023/06/07 01:31:11;;;;;;;27.33;9.45;;;24.50;67.80;;;;;;7384662;19;20026;-78
2023/06/07 01:33:43;;;;;;;33.30;11.45;;;24.40;67.90;;;;;;7385734;19;20014;-78
2023/06/07 01:36:16;;;;;;;20.05;10.10;;;24.30;68.20;;;;;;7384037;19;20006;-78
2023/06/07 01:38:53;;;;;;;28.05;10.43;;;24.30;68.20;;;;;;7382446;19;20022;-78
2023/06/07 01:41:23;;;;;;;26.38;9.82;;;24.30;68.20;;;;;;7381347;19;20020;-78
2023/06/07 01:43:53;;;;;;;32.05;11.15;;;24.20;68.20;;;;;;7402534;19;20372;-78
2023/06/07 01:46:30;;;;;;;28.63;9.90;;;24.10;68.40;;;;;;7383402;19;20071;-78
2023/06/07 01:48:59;;;;;;;32.45;11.13;;;24.00;68.60;;;;;;7385676;19;20007;-78
2023/06/07 01:51:28;;;;;;;34.00;11.73;;;23.90;68.80;;;;;;7387189;19;20017;-78
2023/06/07 01:54:00;;;;;;;28.13;11.63;;;23.80;69.00;;;;;;7385913;19;20389;-78
2023/06/07 01:56:37;;;;;;;33.38;11.23;;;23.70;69.40;;;;;;7383398;19;20373;-78
2023/06/07 01:59:18;;;;;;;43.58;11.40;;;23.80;69.40;;;;;;7380534;19;20006;-78
2023/06/07 02:01:53;;;;;;;32.77;11.47;;;23.60;69.60;;;;;;7401150;19;20010;-78
2023/06/07 02:04:23;;;;;;;30.95;11.18;;;23.70;69.70;;;;;;7381254;19;20466;-78
2023/06/07 02:06:55;;;;;;;28.55;11.93;;;23.80;69.50;;;;;;7380628;19;20031;-78
2023/06/07 02:09:27;;;;;;;;;;;23.80;69.40;;;;;;7383181;19;20007;-78
2023/06/07 02:11:58;;;;;;;28.73;12.35;;;23.90;69.30;;;;;;7379467;19;19920;-78
2023/06/07 02:14:27;;;;;;;27.27;11.23;;;23.70;69.10;;;;;;7385002;19;20268;-78
2023/06/07 02:16:56;;;;;;;29.17;11.48;;;23.60;69.40;;;;;;7400771;19;20665;-78
2023/06/07 02:19:26;;;;;;;28.08;11.10;;;23.60;69.40;;;;;;7380891;19;20275;-78
2023/06/07 02:21:57;;;;;;;25.85;11.32;;;23.60;69.50;;;;;;7380438;19;20066;-78
2023/06/07 02:24:29;;;;;;;26.88;11.32;;;23.60;69.60;;;;;;7379756;19;20003;-78
2023/06/07 02:26:58;;;;;;;30.88;12.55;;;23.60;69.40;;;;;;7379449;19;20062;-78
2023/06/07 02:29:29;;;;;;;28.15;12.00;;;23.70;69.40;;;;;;7381002;19;20042;-78
2023/06/07 02:32:00;;;;;;;30.20;11.77;;;23.60;69.40;;;;;;7402713;19;20015;-78
2023/06/07 02:34:29;;;;;;;31.60;11.63;;;23.60;69.50;;;;;;7380808;19;20024;-78
2023/06/07 02:36:58;;;;;;;41.17;12.98;;;23.60;69.50;;;;;;7377487;19;20011;-78
2023/06/07 02:39:30;;;;;;;29.13;12.18;;;23.60;69.50;;;;;;7381723;19;20558;-78
2023/06/07 02:42:00;;;;;;;28.60;11.98;;;23.50;69.50;;;;;;7385212;19;20014;-78
2023/06/07 02:44:28;;;;;;;34.20;12.77;;;23.50;69.60;;;;;;7385022;19;20015;-78
2023/06/07 02:46:57;;;;;;;31.75;12.70;;;23.50;69.60;;;;;;7403538;19;20010;-78
2023/06/07 02:49:29;;;;;;;28.88;11.77;;;23.40;69.80;;;;;;7381815;19;20011;-78
2023/06/07 02:52:01;;;;;;;30.17;12.73;;;23.40;69.90;;;;;;7380374;19;20009;-78
2023/06/07 02:54:36;;;;;;;25.77;11.45;;;23.40;69.90;;;;;;7380589;19;20006;-78
2023/06/07 02:57:05;;;;;;;32.38;12.63;;;23.40;69.90;;;;;;7381449;19;20011;-78
2023/06/07 02:59:34;;;;;;;29.08;12.88;;;23.30;70.00;;;;;;7381167;19;20007;-78
2023/06/07 03:02:05;;;;;;;38.60;14.25;;;23.30;70.00;;;;;;7384581;19;20003;-78
2023/06/07 03:04:34;;;;;;;;;;;23.30;70.10;;;;;;7404487;19;20275;-78
2023/06/07 03:07:02;;;;;;;30.83;13.23;;;23.30;70.30;;;;;;7385648;19;19909;-78
2023/06/07 03:09:34;;;;;;;28.00;12.45;;;23.30;70.10;;;;;;7379166;19;20027;-78
2023/06/07 03:12:04;;;;;;;30.73;11.88;;;23.20;70.10;;;;;;7379582;19;20011;-78
2023/06/07 03:14:33;;;;;;;29.67;13.32;;;23.20;70.20;;;;;;7378660;19;20070;-78
2023/06/07 03:17:04;;;;;;;29.80;12.48;;;23.20;70.20;;;;;;7398333;19;20006;-78
2023/06/07 03:19:33;;;;;;;42.63;14.35;;;23.20;70.20;;;;;;7378991;19;20098;-78
2023/06/07 03:22:02;;;;;;;32.30;14.02;;;23.20;70.20;;;;;;7378383;19;20411;-78
2023/06/07 03:24:30;;;;;;;34.40;13.30;;;23.20;70.20;;;;;;7384721;19;19999;-78
2023/06/07 03:27:02;;;;;;;30.58;11.90;;;23.20;70.30;;;;;;7386799;19;20346;-78
2023/06/07 03:29:34;;;;;;;31.48;13.35;;;23.10;70.40;;;;;;7384575;19;20058;-78
2023/06/07 03:32:03;;;;;;;34.28;13.32;;;23.20;70.20;;;;;;7394629;19;20006;-78
2023/06/07 03:34:35;;;;;;;35.97;13.45;;;23.20;70.20;;;;;;7411234;19;20015;-78
2023/06/07 03:37:07;;;;;;;36.75;14.40;;;23.10;70.20;;;;;;7386026;19;20007;-78
2023/06/07 03:39:39;;;;;;;35.67;14.13;;;23.10;70.20;;;;;;7390960;19;20015;-78
2023/06/07 03:42:11;;;;;;;33.33;13.82;;;23.00;70.40;;;;;;7390266;19;20059;-78
2023/06/07 03:44:39;;;;;;;35.08;14.40;;;22.80;70.70;;;;;;7391136;19;20023;-78
2023/06/07 03:47:08;;;;;;;29.42;13.90;;;22.80;70.90;;;;;;7384616;19;20231;-77
2023/06/07 03:49:37;;;;;;;28.40;13.48;;;22.80;71.10;;;;;;7407057;19;20010;-77
2023/06/07 03:52:07;;;;;;;41.90;13.93;;;22.70;71.20;;;;;;7387756;19;20010;-77
2023/06/07 03:54:38;;;;;;;30.55;13.65;;;22.70;71.20;;;;;;7389279;19;20046;-77
2023/06/07 03:57:10;;;;;;;34.35;15.02;;;22.60;71.50;;;;;;7388352;19;20026;-77
2023/06/07 03:59:40;;;;;;;30.98;13.63;;;22.50;71.60;;;;;;7386034;19;20006;-78
2023/06/07 04:02:09;;;;;;;32.22;13.23;;;22.50;71.70;;;;;;7384557;19;20383;-78
2023/06/07 04:04:38;;;;;;;34.78;15.27;;;22.60;71.80;;;;;;7407196;19;20230;-78
2023/06/07 04:07:08;;;;;;;50.95;15.55;;;22.50;71.70;;;;;;7395098;19;20002;-78
2023/06/07 04:09:37;;;;;;;35.13;13.93;;;22.40;71.90;;;;;;7393113;19;20024;-78
2023/06/07 04:12:12;;;;;;;43.75;15.63;;;22.50;72.80;;;;;;7392403;19;20343;-78
2023/06/07 04:14:40;;;;;;;39.17;14.95;;;22.40;71.80;;;;;;7388974;19;20076;-78
2023/06/07 04:17:09;;;;;;;53.42;14.88;;;22.50;71.90;;;;;;7386428;19;20011;-78
2023/06/07 04:19:38;;;;;;;48.90;16.35;;;22.50;72.10;;;;;;7406412;19;20024;-77
2023/06/07 04:22:11;;;;;;;36.47;15.10;;;22.50;72.10;;;;;;7386951;19;20056;-77
2023/06/07 04:24:42;;;;;;;34.63;14.63;;;22.50;71.90;;;;;;7384817;19;20096;-77
2023/06/07 04:27:17;;;;;;;38.38;15.43;;;22.50;71.80;;;;;;7383746;19;20011;-77
2023/06/07 04:29:53;;;;;;;34.50;15.73;;;22.60;71.80;;;;;;7385478;19;20002;-77
2023/06/07 04:32:22;;;;;;;33.55;13.90;;;22.60;71.80;;;;;;7383697;19;20020;-77
2023/06/07 04:34:51;;;;;;;41.90;15.73;;;22.50;71.80;;;;;;7407105;19;20444;-77
2023/06/07 04:37:20;;;;;;;38.72;15.98;;;22.50;71.80;;;;;;7380482;19;20027;-77
2023/06/07 04:39:49;;;;;;;38.72;14.65;;;22.50;71.80;;;;;;7381790;19;20024;-77
2023/06/07 04:42:21;;;;;;;38.20;15.43;;;22.50;72.10;;;;;;7383065;19;20007;-77
2023/06/07 04:44:52;;;;;;;45.67;16.30;;;22.50;72.00;;;;;;7381714;19;20003;-77
2023/06/07 04:47:24;;;;;;;38.50;15.45;;;22.50;71.90;;;;;;7383982;19;20027;-77
2023/06/07 04:49:55;;;;;;;43.78;17.23;;;22.40;72.10;;;;;;7404356;19;20006;-77
2023/06/07 04:52:25;;;;;;;40.50;17.08;;;22.50;72.00;;;;;;7383468;19;20035;-77
2023/06/07 04:54:56;;;;;;;34.42;15.00;;;22.50;72.00;;;;;;7391997;19;20019;-77
2023/06/07 04:57:28;;;;;;;45.10;17.02;;;22.50;72.00;;;;;;7408020;19;20014;-77
2023/06/07 04:59:57;;;;;;;39.22;15.43;;;22.30;72.10;;;;;;7401353;19;20015;-77
2023/06/07 05:02:26;;;;;;;43.17;16.38;;;22.40;72.30;;;;;;7388655;19;20057;-77
2023/06/07 05:04:57;;;;;;;36.55;15.13;;;22.20;72.50;;;;;;7406134;19;20016;-77
2023/06/07 05:07:32;;;;;;;43.05;16.20;;;22.30;72.90;;;;;;7381522;19;20010;-77
2023/06/07 05:10:00;;;;;;;40.53;16.35;;;22.30;72.60;;;;;;7382734;19;20035;-76
2023/06/07 05:12:32;;;;;;;46.67;16.30;;;22.30;72.60;;;;;;7383784;19;20055;-76
2023/06/07 05:15:00;;;;;;;;;;;22.30;72.60;;;;;;7383423;19;20011;-77
2023/06/07 05:17:29;;;;;;;61.22;18.67;;;22.40;72.50;;;;;;7385377;19;20004;-77
2023/06/07 05:19:58;;;;;;;44.30;17.33;;;22.40;72.40;;;;;;7407646;19;20007;-76
2023/06/07 05:22:27;;;;;;;38.88;16.63;;;22.30;72.70;;;;;;7380758;19;20003;-76
2023/06/07 05:24:55;;;;;;;41.53;17.63;;;22.30;72.90;;;;;;7380399;19;20709;-76
2023/06/07 05:27:33;;;;;;;48.15;16.17;;;22.30;72.90;;;;;;7381443;19;20007;-80
2023/06/07 05:30:02;;;;;;;49.03;17.85;;;22.30;72.70;;;;;;7382231;19;20003;-77
2023/06/07 05:35:17;;;;;;;39.63;18.45;;;22.20;72.80;;;;;;7385449;19;20022;-80
2023/06/07 05:37:47;;;;;;;45.33;19.33;;;22.20;72.70;;;;;;7408110;19;20039;-79
2023/06/07 05:40:18;;;;;;;47.75;18.42;;;22.10;72.90;;;;;;7381876;19;20002;-77
2023/06/07 05:42:50;;;;;;;35.58;17.50;;;22.10;73.30;;;;;;7381732;19;20020;-77
2023/06/07 05:45:19;;;;;;;39.30;19.08;;;22.10;73.30;;;;;;7382315;19;20007;-78
2023/06/07 05:47:48;;;;;;;47.60;18.48;;;22.20;73.20;;;;;;7386280;19;20029;-77
2023/06/07 05:50:19;;;;;;;33.10;17.83;;;22.30;73.10;;;;;;7381022;19;20015;-77
2023/06/07 05:52:47;;;;;;;40.67;17.48;;;22.40;73.00;;;;;;7400070;19;20246;-77
2023/06/07 05:55:16;;;;;;;44.35;18.25;;;22.40;72.80;;;;;;7380137;19;19999;-77
2023/06/07 05:57:46;;;;;;;45.80;17.65;;;22.40;72.50;;;;;;7379355;19;20006;-77
2023/06/07 06:00:18;;;;;;;39.20;18.58;;;22.50;72.50;;;;;;7380470;19;20066;-77
2023/06/07 06:02:48;;;;;;;55.13;20.40;;;22.50;72.50;;;;;;7380125;19;20015;-77
2023/06/07 06:05:17;;;;;;;47.33;20.58;;;22.40;72.40;;;;;;7382706;19;20017;-77
2023/06/07 06:07:46;;;;;;;43.45;20.33;;;22.40;72.40;;;;;;7406075;19;20007;-78
2023/06/07 06:10:15;;;;;;;39.95;18.45;;;22.50;72.50;;;;;;7388242;19;20034;-78
2023/06/07 06:12:44;;;;;;;43.33;18.38;;;22.40;72.50;;;;;;7383203;19;20007;-78
2023/06/07 06:15:13;;;;;;;39.92;19.15;;;22.40;72.50;;;;;;7381304;19;20058;-77
2023/06/07 06:17:44;;;;;;;37.90;19.42;;;22.50;72.60;;;;;;7380279;19;20009;-77
2023/06/07 06:20:16;;;;;;;;;;;22.30;72.50;;;;;;7383476;19;20024;-77
2023/06/07 06:22:45;;;;;;;45.55;18.63;;;22.50;72.60;;;;;;7405389;19;19915;-77
2023/06/07 06:25:14;;;;;;;43.78;18.13;;;22.40;72.50;;;;;;7381127;19;20014;-77
2023/06/07 06:27:43;;;;;;;52.42;19.27;;;22.50;72.40;;;;;;7383584;19;20007;-77
2023/06/07 06:30:13;;;;;;;39.58;17.45;;;22.60;72.40;;;;;;7385640;19;20006;-78
2023/06/07 06:32:44;;;;;;;43.00;17.10;;;22.70;72.10;;;;;;7384670;19;20003;-78
2023/06/07 06:35:12;;;;;;;;;;;22.80;72.20;;;;;;7385311;19;20260;-78
2023/06/07 06:37:41;;;;;;;44.22;19.52;;;22.90;71.70;;;;;;7404115;19;20266;-78
2023/06/07 06:40:12;;;;;;;46.65;20.67;;;22.90;71.50;;;;;;7383822;19;20002;-78
2023/06/07 06:42:42;;;;;;;43.58;19.90;;;22.90;71.10;;;;;;7383296;19;20281;-78
2023/06/07 06:45:11;;;;;;;47.72;18.80;;;22.90;71.30;;;;;;7385291;19;20042;-78
2023/06/07 06:47:41;;;;;;;46.75;18.55;;;22.90;71.40;;;;;;7383143;19;20013;-78
2023/06/07 06:50:14;;;;;;;44.33;18.52;;;23.00;71.30;;;;;;7385866;19;20029;-78
2023/06/07 06:52:44;;;;;;;52.03;19.15;;;23.00;71.30;;;;;;7406490;19;20007;-79
2023/06/07 06:55:13;;;;;;;50.60;19.83;;;23.10;71.10;;;;;;7383663;19;20017;-79
2023/06/07 06:57:42;;;;;;;37.38;18.63;;;23.10;71.00;;;;;;7384993;19;20015;-79
2023/06/07 07:00:12;;;;;;;47.75;19.33;;;23.20;71.00;;;;;;7394140;19;20386;-78
2023/06/07 07:02:41;;;;;;;41.10;18.63;;;23.00;70.90;;;;;;7393561;19;20020;-78
2023/06/07 07:05:13;;;;;;;49.83;19.83;;;22.90;71.40;;;;;;7388062;19;20113;-78
2023/06/07 07:07:42;;;;;;;42.90;19.95;;;22.80;71.90;;;;;;7411390;19;20007;-78
2023/06/07 07:10:14;;;;;;;52.72;21.17;;;22.80;71.70;;;;;;7392134;19;20081;-78
2023/06/07 07:12:44;;;;;;;46.05;21.77;;;22.70;71.70;;;;;;7393206;19;20227;-78
2023/06/07 07:15:13;;;;;;;49.03;20.20;;;22.70;72.20;;;;;;7390679;19;20091;-78
2023/06/07 07:17:48;;;;;;;44.55;19.85;;;22.70;72.10;;;;;;7389549;19;20280;-78
2023/06/07 07:20:20;;;;;;;42.30;19.50;;;22.70;72.20;;;;;;7392548;19;20014;-78
2023/06/07 07:22:49;;;;;;;51.78;20.30;;;22.80;72.30;;;;;;7409501;19;20078;-78
2023/06/07 07:25:18;;;;;;;37.25;18.95;;;22.80;72.00;;;;;;7391877;19;20007;-78
2023/06/07 07:27:47;;;;;;;41.85;19.65;;;22.90;71.80;;;;;;7393051;19;20003;-78
2023/06/07 07:30:16;;;;;;;46.92;19.30;;;23.00;71.70;;;;;;7391672;19;20003;-79
2023/06/07 07:32:44;;;;;;;41.45;19.90;;;23.00;71.70;;;;;;7392178;19;20400;-79
2023/06/07 07:35:13;;;;;;;46.40;18.35;;;23.00;71.70;;;;;;7391172;19;20007;-79
2023/06/07 07:37:45;;;;;;;47.92;18.52;;;23.10;71.90;;;;;;7411760;19;20031;-79
2023/06/07 07:40:14;;;;;;;;;;;23.10;71.90;;;;;;7389502;19;20019;-78
2023/06/07 07:42:43;;;;;;;55.47;19.95;;;23.40;71.80;;;;;;7390721;19;20153;-79
2023/06/07 07:45:14;;;;;;;42.47;18.23;;;23.30;71.20;;;;;;7392180;19;20010;-79
2023/06/07 07:47:42;;;;;;;41.92;18.55;;;23.40;71.40;;;;;;7390973;19;20010;-79
2023/06/07 07:50:12;;;;;;;40.10;19.52;;;23.40;71.30;;;;;;7390012;19;20339;-79
2023/06/07 07:52:41;;;;;;;35.75;19.42;;;23.40;71.00;;;;;;7413633;19;20034;-78
2023/06/07 07:55:13;;;;;;;44.40;19.00;;;23.50;71.00;;;;;;7391028;19;20011;-78
2023/06/07 07:57:41;;;;;;;42.38;19.13;;;23.50;71.10;;;;;;7390441;19;20059;-78
2023/06/07 08:00:12;;;;;;;42.78;18.63;;;23.50;71.80;;;;;;7387855;19;20042;-78
2023/06/07 08:02:41;;;;;;;37.50;18.55;;;23.60;70.60;;;;;;7383087;19;20082;-78
2023/06/07 08:05:13;;;;;;;34.47;18.20;;;23.60;70.60;;;;;;7383202;19;20010;-78
2023/06/07 08:07:42;;;;;;;42.20;17.88;;;23.60;70.60;;;;;;7406029;19;20367;-77
2023/06/07 08:10:14;;;;;;;45.38;19.88;;;23.60;70.80;;;;;;7387702;19;20027;-78
2023/06/07 08:12:43;;;;;;;43.05;19.00;;;23.70;70.70;;;;;;7385117;19;20006;-78
2023/06/07 08:15:16;;;;;;;51.97;20.33;;;23.70;71.30;;;;;;7393077;19;20010;-78
2023/06/07 08:17:44;;;;;;;40.60;19.48;;;23.70;70.50;;;;;;7391520;19;20014;-78
2023/06/07 08:20:14;;;;;;;44.50;19.45;;;23.60;71.00;;;;;;7393712;19;20017;-78
2023/06/07 08:22:45;;;;;;;38.90;18.92;;;23.40;71.00;;;;;;7419709;19;20023;-78
2023/06/07 08:25:16;;;;;;;34.93;17.10;;;23.40;71.10;;;;;;7396994;19;20007;-79
2023/06/07 08:27:46;;;;;;;32.60;16.88;;;23.40;71.30;;;;;;7395003;19;20017;-78
2023/06/07 08:30:15;;;;;;;42.90;16.25;;;23.50;71.40;;;;;;7395530;19;20009;-78
2023/06/07 08:32:45;;;;;;;31.88;14.18;;;23.60;71.40;;;;;;7396161;19;20014;-79
2023/06/07 08:35:14;;;;;;;40.92;14.93;;;23.70;71.30;;;;;;7394091;19;20009;-79
2023/06/07 08:37:44;;;;;;;43.90;15.15;;;23.80;70.90;;;;;;7419001;19;20021;-79
2023/06/07 08:40:16;;;;;;;47.13;15.27;;;23.90;70.50;;;;;;7397921;19;20034;-79
2023/06/07 08:42:45;;;;;;;37.45;14.80;;;24.00;70.20;;;;;;7409745;19;20010;-79
2023/06/07 08:45:14;;;;;;;42.05;13.55;;;24.10;70.00;;;;;;7407558;19;20009;-79
2023/06/07 08:47:46;;;;;;;28.25;13.32;;;24.10;69.70;;;;;;7394464;19;20002;-79
2023/06/07 08:50:17;;;;;;;38.67;13.60;;;24.10;69.70;;;;;;7390595;19;20023;-79
2023/06/07 08:52:52;;;;;;;40.60;14.35;;;24.20;69.20;;;;;;7410134;19;20019;-79
2023/06/07 08:55:24;;;;;;;56.88;14.18;;;24.20;69.20;;;;;;7394904;19;20003;-79
2023/06/07 08:57:55;;;;;;;28.08;12.27;;;24.30;69.20;;;;;;7391011;19;20074;-79
2023/06/07 09:00:25;;;;;;;38.58;13.73;;;24.30;69.50;;;;;;7391770;19;20017;-79
2023/06/07 09:02:55;;;;;;;35.83;12.73;;;24.30;69.50;;;;;;7390530;19;20006;-79
2023/06/07 09:05:24;;;;;;;32.72;14.55;;;24.40;69.40;;;;;;7388300;19;20106;-79
2023/06/07 09:07:53;;;;;;;39.50;13.52;;;24.40;69.10;;;;;;7416130;19;20011;-78
2023/06/07 09:10:26;;;;;;;33.38;14.27;;;24.30;69.30;;;;;;7388339;19;20022;-79
2023/06/07 09:12:56;;;;;;;32.25;14.13;;;24.40;69.80;;;;;;7389114;19;20405;-79
2023/06/07 09:15:25;;;;;;;37.33;14.35;;;24.30;69.50;;;;;;7388450;19;20006;-78
2023/06/07 09:17:55;;;;;;;40.47;14.27;;;24.30;69.80;;;;;;7390119;19;20358;-79
2023/06/07 09:20:25;;;;;;;40.55;14.45;;;24.30;70.00;;;;;;7388171;19;20347;-79
2023/06/07 09:23:02;;;;;;;29.20;14.30;;;24.30;70.10;;;;;;7414723;19;20006;-79
2023/06/07 09:25:34;;;;;;;36.78;13.52;;;24.30;69.80;;;;;;7403067;19;20047;-79
2023/06/07 09:28:05;;;;;;;26.77;13.55;;;24.30;70.10;;;;;;7400936;19;20002;-79
2023/06/07 09:30:36;;;;;;;33.05;12.35;;;24.40;69.70;;;;;;7388110;19;20377;-79
2023/06/07 09:33:06;;;;;;;33.42;11.70;;;24.60;69.50;;;;;;7390192;19;20057;-79
2023/06/07 09:35:35;;;;;;;40.40;10.90;;;24.60;69.50;;;;;;7393345;19;20337;-79
2023/06/07 09:38:06;;;;;;;37.25;12.40;;;24.80;69.40;;;;;;7393109;19;20021;-79
2023/06/07 09:40:38;;;;;;;25.65;10.43;;;24.70;69.10;;;;;;7417559;19;20357;-79
2023/06/07 09:43:07;;;;;;;22.52;10.52;;;24.90;68.90;;;;;;7388842;19;20007;-79
2023/06/07 09:45:36;;;;;;;25.25;10.77;;;25.10;68.20;;;;;;7385624;19;20429;-79
2023/06/07 09:48:07;;;;;;;23.35;9.70;;;25.10;68.00;;;;;;7391038;19;20010;-80
2023/06/07 09:50:36;;;;;;;33.15;9.57;;;25.20;67.80;;;;;;7409973;19;20014;-79
2023/06/07 09:53:05;;;;;;;20.38;9.93;;;25.30;66.70;;;;;;7392494;19;20030;-80
2023/06/07 09:55:33;;;;;;;26.15;9.07;;;25.40;66.20;;;;;;7392951;19;20006;-79
2023/06/07 09:58:20;;;;;;;20.25;9.52;;;25.50;65.80;;;;;;7390860;19;20024;-79
2023/06/07 10:00:49;;;;;;;29.73;9.98;;;25.50;65.10;;;;;;7387740;19;20084;-79
2023/06/07 10:03:18;;;;;;;24.95;10.10;;;25.60;64.70;;;;;;7386773;19;20133;-79
2023/06/07 10:05:48;;;;;;;27.02;9.95;;;25.70;64.70;;;;;;7410576;19;20477;-79
2023/06/07 10:08:17;;;;;;;28.85;9.85;;;25.70;64.80;;;;;;7389083;19;20007;-79
2023/06/07 10:10:47;;;;;;;29.63;8.73;;;25.80;64.80;;;;;;7387784;19;20031;-79
2023/06/07 10:13:22;;;;;;;15.50;8.13;;;25.80;64.50;;;;;;7387402;19;20014;-79
2023/06/07 10:15:51;;;;;;;20.48;8.10;;;25.80;63.70;;;;;;7385925;19;20055;-79
2023/06/07 10:18:26;;;;;;;23.60;8.25;;;25.90;63.50;;;;;;7388461;19;19999;-79
2023/06/07 10:21:00;;;;;;;18.80;9.00;;;26.00;62.90;;;;;;7409952;19;20015;-78
2023/06/07 10:23:46;;;;;;;25.75;9.57;;;26.10;63.00;;;;;;7388892;19;20010;-79
2023/06/07 10:26:21;;;;;;;16.63;7.82;;;26.20;63.20;;;;;;7394973;19;20011;-79
2023/06/07 10:29:02;;;;;;;26.63;8.48;;;26.30;62.60;;;;;;7390782;19;20090;-79
2023/06/07 10:31:39;;;;;;;11.95;7.47;;;26.30;62.10;;;;;;7387943;19;20007;-79
2023/06/07 10:34:09;;;;;;;15.98;8.27;;;26.40;61.70;;;;;;7387727;19;20026;-79
2023/06/07 10:36:40;;;;;;;25.48;8.68;;;26.60;61.70;;;;;;7393289;19;20055;-79
2023/06/07 10:39:11;;;;;;;20.88;11.30;;;26.60;61.00;;;;;;7394101;19;20003;-79
2023/06/07 10:41:44;;;;;;;;;;;26.70;61.00;;;;;;7415218;19;20013;-79
2023/06/07 10:44:16;;;;;;;19.30;8.30;;;26.70;61.00;;;;;;7397032;19;19939;-79
2023/06/07 10:46:47;;;;;;;13.57;7.82;;;26.80;60.90;;;;;;7397363;19;20003;-79
2023/06/07 10:49:38;;;;;;;19.40;8.25;;;26.70;60.60;;;;;;7396267;19;20035;-81
2023/06/07 10:52:08;;;;;;;17.20;8.80;;;26.80;60.90;;;;;;7388912;19;20023;-79
2023/06/07 10:54:37;;;;;;;21.73;7.93;;;26.80;60.90;;;;;;7388688;19;20003;-79
2023/06/07 10:57:09;;;;;;;20.10;7.80;;;26.80;61.00;;;;;;7389639;19;20010;-80
2023/06/07 10:59:42;;;;;;;18.58;8.13;;;26.80;61.00;;;;;;7418006;19;20014;-79
2023/06/07 11:02:27;;;;;;;24.30;7.75;;;26.90;60.50;;;;;;7386319;19;20046;-79
2023/06/07 11:04:57;;;;;;;18.88;7.38;;;27.00;60.90;;;;;;7386769;19;20007;-79
2023/06/07 11:07:27;;;;;;;17.80;7.07;;;27.00;60.50;;;;;;7387706;19;20007;-80
2023/06/07 11:10:26;;;;;;;15.35;8.07;;;27.10;60.00;;;;;;7386879;19;20302;-79
2023/06/07 11:12:58;;;;;;;15.25;7.57;;;27.10;59.70;;;;;;7383736;19;20002;-79
2023/06/07 11:15:35;;;;;;;21.05;7.38;;;27.10;60.10;;;;;;7383301;19;19998;-79
2023/06/07 11:18:05;;;;;;;16.10;7.05;;;27.10;60.80;;;;;;7390378;19;20010;-79
2023/06/07 11:20:51;;;;;;;11.93;6.93;;;27.20;59.50;;;;;;7407658;19;20381;-79
2023/06/07 11:23:27;;;;;;;12.25;7.15;;;27.30;59.70;;;;;;7385098;19;20275;-80
2023/06/07 11:26:01;;;;;;;13.13;6.38;;;27.30;59.80;;;;;;7385099;19;20063;-79
2023/06/07 11:28:31;;;;;;;17.30;6.72;;;27.40;59.70;;;;;;7386212;19;20003;-79
2023/06/07 11:31:04;;;;;;;19.30;6.87;;;27.50;59.30;;;;;;7384266;19;20022;-79
2023/06/07 11:33:33;;;;;;;18.10;7.20;;;27.50;57.80;;;;;;7385511;19;20296;-79
2023/06/07 11:36:03;;;;;;;16.40;6.43;;;27.50;58.10;;;;;;7381965;19;20011;-79
2023/06/07 11:38:32;;;;;;;14.88;6.53;;;27.50;58.60;;;;;;7403581;19;20264;-79
2023/06/07 11:41:03;;;;;;;10.75;6.07;;;27.60;58.10;;;;;;7383871;19;20003;-79
2023/06/07 11:43:34;;;;;;;9.55;6.35;;;27.70;57.00;;;;;;7384700;19;19999;-79
2023/06/07 11:46:05;;;;;;;12.90;5.97;;;27.70;57.20;;;;;;7390530;19;20002;-79
2023/06/07 11:48:34;;;;;;;11.77;6.38;;;27.70;57.10;;;;;;7389466;19;20010;-78
2023/06/07 11:51:03;;;;;;;14.35;6.25;;;27.70;55.90;;;;;;7392114;19;20003;-79
2023/06/07 11:53:32;;;;;;;12.38;6.03;;;27.80;56.30;;;;;;7414644;19;20362;-79
2023/06/07 11:56:03;;;;;;;11.18;5.53;;;27.80;56.60;;;;;;7394529;19;19998;-79
2023/06/07 11:58:33;;;;;;;10.27;5.57;;;27.90;55.80;;;;;;7393877;19;20109;-79
2023/06/07 12:01:07;;;;;;;11.00;5.88;;;28.00;54.90;;;;;;7392288;19;20021;-79
2023/06/07 12:03:36;;;;;;;15.90;5.50;;;28.00;54.40;;;;;;7393602;19;20010;-79
2023/06/07 12:06:05;;;;;;;13.13;5.60;;;28.10;55.10;;;;;;7397841;19;20014;-79
2023/06/07 12:08:35;;;;;;;16.27;6.00;;;28.10;54.40;;;;;;7432580;19;20007;-79
2023/06/07 12:11:04;;;;;;;12.82;5.65;;;28.10;54.20;;;;;;7410145;19;20023;-79
2023/06/07 12:13:40;;;;;;;18.55;5.70;;;28.20;54.40;;;;;;7394797;19;20054;-79
2023/06/07 12:16:14;;;;;;;10.00;5.32;;;28.30;53.20;;;;;;7391302;19;20381;-78
2023/06/07 12:18:43;;;;;;;12.88;5.85;;;28.30;53.70;;;;;;7393613;19;20018;-79
2023/06/07 12:21:15;;;;;;;20.50;6.35;;;28.30;52.40;;;;;;7392906;19;20038;-80
2023/06/07 12:23:50;;;;;;;10.07;5.80;;;28.30;52.50;;;;;;7413128;19;20013;-78
2023/06/07 12:26:21;;;;;;;11.18;6.15;;;28.40;53.10;;;;;;7394497;19;20023;-79
2023/06/07 12:28:53;;;;;;;15.18;5.72;;;28.50;52.90;;;;;;7395340;19;20253;-79
2023/06/07 12:31:27;;;;;;;12.90;5.90;;;28.60;53.50;;;;;;7396951;19;20413;-79
2023/06/07 12:33:57;;;;;;;10.02;5.28;;;28.70;53.30;;;;;;7395370;19;20035;-79
2023/06/07 12:36:29;;;;;;;12.70;5.43;;;28.80;53.10;;;;;;7390871;19;20015;-79
2023/06/07 12:39:02;;;;;;;7.28;5.22;;;29.00;52.70;;;;;;7415107;19;20035;-79
2023/06/07 12:41:32;;;;;;;10.93;5.88;;;29.10;52.80;;;;;;7394827;19;20010;-79
2023/06/07 12:44:01;;;;;;;13.07;4.97;;;29.20;52.60;;;;;;7390090;19;20014;-79
2023/06/07 12:46:33;;;;;;;12.15;5.55;;;29.30;52.10;;;;;;7388893;19;19999;-79
2023/06/07 12:49:02;;;;;;;9.05;6.57;;;29.40;52.00;;;;;;7392619;19;20018;-79
2023/06/07 12:51:32;;;;;;;11.15;5.95;;;29.40;52.50;;;;;;7390911;19;20011;-79
2023/06/07 12:54:01;;;;;;;8.40;5.32;;;29.30;52.80;;;;;;7389489;19;20011;-79